Time;durP1;ratioP1;P1;durP2;ratioP2;P2;SDS_P1;SDS_P2;PMS_P1;PMS_P2;Temp;Humidity;BMP_temperature;BMP_pressure;BME280_temperature;BME280_humidity;BME280_pressure;Samples;Min_cycle;Max_cycle;Signal;HPM_P1;HPM_P2
2022/01/13 00:00:34;;;;;;;6.02;5.40;;;;;;;-10.17;57.01;101697.75;470353;110;931370;-76
2022/01/13 00:01:41;;;;;;;6.85;5.27;;;;;;;-10.19;56.98;101696.07;469705;109;922615;-74
2022/01/13 00:02:43;;;;;;;5.91;5.09;;;;;;;-10.21;57.05;101695.29;469773;110;930560;-74
2022/01/13 00:03:48;;;;;;;6.33;5.45;;;;;;;-10.22;57.27;101697.06;470423;110;922399;-74
2022/01/13 00:04:51;;;;;;;7.22;4.77;;;;;;;-10.22;57.24;101694.42;469935;109;922850;-75
2022/01/13 00:05:55;;;;;;;6.31;5.29;;;;;;;-10.22;57.22;101693.56;471302;111;922667;-75
2022/01/13 00:06:58;;;;;;;7.22;6.48;;;;;;;-10.22;57.29;101693.56;471392;110;930503;-75
2022/01/13 00:08:02;;;;;;;7.03;5.56;;;;;;;-10.22;57.30;101698.84;470224;110;930515;-75
2022/01/13 00:09:06;;;;;;;5.59;5.09;;;;;;;-10.22;57.29;101690.92;470817;109;922787;-75
2022/01/13 00:10:10;;;;;;;5.92;5.36;;;;;;;-10.23;57.31;101681.28;469762;109;922675;-75
2022/01/13 00:11:14;;;;;;;5.57;5.01;;;;;;;-10.23;57.32;101687.42;470609;110;922633;-76
2022/01/13 00:12:19;;;;;;;6.72;4.55;;;;;;;-10.24;57.27;101684.84;471334;110;922606;-74
2022/01/13 00:13:30;;;;;;;5.96;5.27;;;;;;;-10.25;57.31;101691.88;470363;110;922845;-75
2022/01/13 00:15:45;;;;;;;5.97;5.41;;;;;;;-10.25;57.34;101688.38;453843;113;922648;-76
2022/01/13 00:18:10;;;;;;;6.39;5.40;;;;;;;-10.26;57.31;101699.88;457506;113;924001;-75
2022/01/13 00:21:36;;;;;;;6.19;5.24;;;;;;;-10.28;57.40;101683.23;453574;113;922595;-75
2022/01/13 00:22:49;;;;;;;5.51;4.87;;;;;;;-10.28;57.46;101685.88;454581;114;923011;-75
2022/01/13 00:25:00;;;;;;;7.19;5.96;;;;;;;-10.15;57.55;101692.40;471412;110;947028;-75
2022/01/13 00:26:07;;;;;;;7.43;5.37;;;;;;;-10.23;57.60;101691.83;463236;112;922922;-75
2022/01/13 00:27:12;;;;;;;9.19;5.51;;;;;;;-10.24;57.46;101680.42;463226;112;922554;-76
2022/01/13 00:28:19;;;;;;;6.43;5.23;;;;;;;-10.24;57.47;101685.70;463531;112;922527;-74
2022/01/13 00:29:25;;;;;;;6.23;5.42;;;;;;;-10.24;57.50;101680.42;451500;117;922830;-75
2022/01/13 00:30:26;;;;;;;11.59;5.03;;;;;;;-10.21;57.61;101684.74;463161;113;922961;-76
2022/01/13 00:31:33;;;;;;;7.86;5.61;;;;;;;-10.18;57.59;101682.84;462681;112;922719;-75
2022/01/13 00:32:37;;;;;;;6.70;5.59;;;;;;;-10.13;57.58;101672.08;463361;113;923167;-75
2022/01/13 00:33:44;;;;;;;6.23;4.88;;;;;;;-10.10;57.58;101671.98;463058;113;922690;-75
2022/01/13 00:34:46;;;;;;;7.29;5.42;;;;;;;-10.08;57.53;101667.50;462659;113;930850;-75
2022/01/13 00:35:50;;;;;;;9.04;5.91;;;;;;;-10.06;57.37;101670.08;462981;113;922498;-77
2022/01/13 00:36:53;;;;;;;6.27;5.64;;;;;;;-10.07;57.22;101671.00;462565;113;930544;-74
2022/01/13 00:37:57;;;;;;;6.47;4.89;;;;;;;-10.09;57.14;101671.08;461990;113;922922;-75
2022/01/13 00:39:00;;;;;;;8.07;5.29;;;;;;;-10.09;57.17;101672.84;461717;113;930656;-75
2022/01/13 00:40:06;;;;;;;7.04;4.70;;;;;;;-10.11;57.18;101670.27;462293;113;930551;-75
2022/01/13 00:41:09;;;;;;;6.42;4.67;;;;;;;-10.11;57.15;101670.27;462418;113;930558;-77
2022/01/13 00:42:14;;;;;;;5.53;4.19;;;;;;;-10.14;57.08;101670.36;462577;113;922584;-75
2022/01/13 00:43:18;;;;;;;9.75;5.39;;;;;;;-10.17;57.02;101663.47;460860;113;930570;-76
2022/01/13 00:44:21;;;;;;;6.30;4.92;;;;;;;-10.17;57.14;101657.34;461884;113;922636;-74
2022/01/13 00:45:25;;;;;;;9.27;4.91;;;;;;;-10.18;57.26;101663.52;465084;113;922574;-75
2022/01/13 00:46:40;;;;;;;7.08;5.32;;;;;;;-10.18;57.13;101658.25;464585;113;930596;-75
2022/01/13 00:47:36;;;;;;;6.52;4.44;;;;;;;-10.19;57.07;101659.16;461550;113;922677;-75
2022/01/13 00:48:39;;;;;;;6.86;5.14;;;;;;;-10.21;57.10;101655.73;463654;113;922592;-76
2022/01/13 00:49:43;;;;;;;5.94;5.37;;;;;;;-10.21;57.07;101653.96;463928;113;922456;-75
2022/01/13 00:50:47;;;;;;;6.62;4.68;;;;;;;-10.21;57.08;101658.38;463947;113;922710;-75
2022/01/13 00:51:50;;;;;;;6.00;5.09;;;;;;;-10.21;57.00;101653.09;464012;113;922990;-76
2022/01/13 00:52:53;;;;;;;6.71;5.42;;;;;;;-10.22;56.89;101652.23;463327;113;922634;-75
2022/01/13 00:54:03;;;;;;;6.95;5.51;;;;;;;-10.22;57.00;101651.38;462567;112;930581;-75
2022/01/13 00:55:07;;;;;;;6.13;5.01;;;;;;;-10.25;57.02;101646.20;463808;113;930651;-75
2022/01/13 00:56:08;;;;;;;7.03;5.10;;;;;;;-10.25;57.04;101646.20;462095;113;923476;-74
2022/01/13 00:57:11;;;;;;;7.13;6.07;;;;;;;-10.27;56.96;101645.41;463881;112;923137;-75
2022/01/13 00:58:16;;;;;;;6.18;5.55;;;;;;;-10.27;56.96;101645.41;464152;113;930461;-76
2022/01/13 00:59:20;;;;;;;6.52;5.23;;;;;;;-10.28;56.98;101643.69;463133;113;922484;-75
2022/01/13 01:00:24;;;;;;;9.42;5.65;;;;;;;-10.30;56.96;101638.47;462583;113;922898;-74
2022/01/13 01:01:27;;;;;;;6.18;4.89;;;;;;;-10.32;57.00;101637.69;463605;113;922591;-75
2022/01/13 01:02:31;;;;;;;7.87;5.38;;;;;;;-10.33;56.95;101632.45;462991;113;922697;-75
2022/01/13 01:03:36;;;;;;;5.59;4.79;;;;;;;-10.35;57.06;101627.23;463760;113;922458;-74
2022/01/13 01:04:39;;;;;;;8.24;4.48;;;;;;;-10.35;57.12;101629.01;462419;112;922982;-75
2022/01/13 01:05:43;;;;;;;5.07;4.61;;;;;;;-10.37;57.13;101626.45;462937;113;923617;-76
2022/01/13 01:06:48;;;;;;;5.31;4.58;;;;;;;-10.36;57.00;101632.59;463143;113;923272;-75
2022/01/13 01:07:51;;;;;;;5.74;5.03;;;;;;;-10.39;57.02;101633.55;462328;113;930640;-75
2022/01/13 01:08:55;;;;;;;6.11;4.96;;;;;;;-10.41;57.05;101631.86;461995;113;922506;-77
2022/01/13 01:10:01;;;;;;;6.28;4.70;;;;;;;-10.42;57.14;101636.31;462518;113;922565;-75
2022/01/13 01:11:04;;;;;;;6.54;4.73;;;;;;;-10.43;57.13;101633.72;462585;113;923117;-75
2022/01/13 01:12:09;;;;;;;5.38;4.51;;;;;;;-10.41;57.24;101637.14;465028;113;922352;-77
2022/01/13 01:13:20;;;;;;;6.74;4.68;;;;;;;-10.40;57.25;101638.86;463265;113;922541;-75
2022/01/13 01:14:18;;;;;;;4.63;3.79;;;;;;;-10.41;57.28;101632.73;463490;112;923020;-75
2022/01/13 01:15:22;;;;;;;6.29;4.67;;;;;;;-10.41;57.24;101634.50;464079;113;922653;-75
2022/01/13 01:16:26;;;;;;;4.69;4.22;;;;;;;-10.41;57.27;101629.23;464366;113;930579;-75
2022/01/13 01:17:30;;;;;;;6.17;4.83;;;;;;;-10.42;57.25;101632.81;464005;113;923047;-76
2022/01/13 01:18:49;;;;;;;6.18;4.82;;;;;;;-10.43;57.28;101629.31;463025;113;922621;-74
2022/01/13 01:19:40;;;;;;;4.87;4.41;;;;;;;-10.43;57.45;101631.95;460668;113;922600;-74
2022/01/13 01:22:29;;;;;;;5.58;4.51;;;;;;;-10.39;57.39;101633.55;463110;113;922553;-75
2022/01/13 01:23:15;;;;;;;4.66;4.10;;;;;;;-10.39;57.41;101636.18;461586;113;922759;-75
2022/01/13 01:26:41;;;;;;;5.02;4.21;;;;;;;-10.42;57.45;101638.95;462519;113;922788;-74
2022/01/13 01:27:46;;;;;;;5.05;4.40;;;;;;;-10.43;57.40;101641.62;462714;113;922843;-74
2022/01/13 01:28:51;;;;;;;5.14;4.64;;;;;;;-10.45;57.34;101641.67;462113;113;922558;-74
2022/01/13 01:30:01;;;;;;;4.67;4.18;;;;;;;-10.47;57.22;101640.03;461916;113;922869;-75
2022/01/13 01:31:00;;;;;;;4.70;3.53;;;;;;;-10.48;57.39;101643.57;460481;113;922575;-75
2022/01/13 01:32:08;;;;;;;6.03;3.60;;;;;;;-10.48;57.41;101646.20;460727;113;922638;-75
2022/01/13 01:33:16;;;;;;;4.02;3.41;;;;;;;-10.48;57.39;101643.57;459607;112;930502;-74
2022/01/13 01:34:37;;;;;;;4.71;4.11;;;;;;;-10.49;57.34;101639.21;453901;115;923107;-75
2022/01/13 01:35:28;;;;;;;5.27;4.66;;;;;;;-10.51;57.35;101639.25;453365;113;923074;-74
2022/01/13 01:36:32;;;;;;;4.42;3.68;;;;;;;-10.51;57.40;101638.39;463966;113;930628;-74
2022/01/13 01:37:36;;;;;;;4.45;3.60;;;;;;;-10.51;57.37;101643.66;464774;113;922941;-74
2022/01/13 01:38:44;;;;;;;4.74;3.85;;;;;;;-10.50;57.38;101640.13;462931;112;922580;-74
2022/01/13 01:39:48;;;;;;;4.72;4.28;;;;;;;-10.48;57.44;101644.44;463475;113;922764;-73
2022/01/13 01:41:01;;;;;;;6.38;3.79;;;;;;;-10.45;57.25;101646.08;463255;112;923294;-74
2022/01/13 01:42:04;;;;;;;3.72;3.41;;;;;;;-10.48;57.08;101639.16;462608;113;922482;-74
2022/01/13 01:43:07;;;;;;;5.02;4.05;;;;;;;-10.50;57.07;101634.84;462004;113;922966;-74
2022/01/13 01:44:14;;;;;;;3.84;3.19;;;;;;;-10.51;57.12;101644.53;463260;113;922768;-75
2022/01/13 01:45:19;;;;;;;4.32;3.92;;;;;;;-10.51;57.17;101638.39;463756;113;923810;-74
2022/01/13 01:46:22;;;;;;;4.34;3.26;;;;;;;-10.50;57.23;101637.48;463417;113;922848;-74
2022/01/13 01:47:30;;;;;;;6.91;3.71;;;;;;;-10.49;57.21;101640.08;463303;113;923002;-73
2022/01/13 01:48:36;;;;;;;4.45;3.76;;;;;;;-10.50;57.04;101645.39;462929;113;922569;-74
2022/01/13 01:49:42;;;;;;;4.07;3.68;;;;;;;-10.49;57.02;101636.58;463023;113;922542;-74
2022/01/13 01:50:54;;;;;;;4.93;3.79;;;;;;;-10.50;56.96;101643.62;462830;113;922525;-73
2022/01/13 01:51:57;;;;;;;4.60;3.89;;;;;;;-10.50;56.93;101640.13;461954;113;922745;-75
2022/01/13 01:53:08;;;;;;;3.93;3.34;;;;;;;-10.40;56.99;101645.00;470281;110;947293;-75
2022/01/13 01:54:11;;;;;;;4.64;3.64;;;;;;;-10.50;57.07;101650.66;457845;113;923039;-75
2022/01/13 01:55:17;;;;;;;4.31;3.77;;;;;;;-10.50;57.11;101646.25;457095;113;930947;-79
2022/01/13 01:56:20;;;;;;;5.86;3.59;;;;;;;-10.48;57.15;101654.11;456896;114;930705;-75
2022/01/13 01:57:24;;;;;;;4.33;3.76;;;;;;;-10.48;57.11;101643.57;457161;114;922444;-73
2022/01/13 01:58:28;;;;;;;4.83;4.17;;;;;;;-10.47;57.04;101645.30;457320;111;923224;-77
2022/01/13 01:59:34;;;;;;;6.40;3.64;;;;;;;-10.48;56.94;101654.98;446046;117;930659;-73
2022/01/13 02:00:37;;;;;;;5.20;3.82;;;;;;;-10.49;56.91;101653.25;449723;115;922607;-73
2022/01/13 02:01:42;;;;;;;3.74;3.37;;;;;;;-10.51;56.76;101654.20;457599;113;922720;-71
2022/01/13 02:02:46;;;;;;;3.51;3.21;;;;;;;-10.52;56.79;101655.98;457056;113;930478;-72
2022/01/13 02:03:50;;;;;;;4.14;3.77;;;;;;;-10.53;56.85;101653.42;455693;115;922667;-72
2022/01/13 02:04:53;;;;;;;4.54;3.62;;;;;;;-10.54;56.82;101652.56;455864;114;922522;-72
2022/01/13 02:05:57;;;;;;;3.77;3.14;;;;;;;-10.53;56.86;101659.56;456357;114;922534;-73
2022/01/13 02:07:03;;;;;;;3.30;2.64;;;;;;;-10.52;56.81;101653.34;456515;113;923039;-73
2022/01/13 02:08:05;;;;;;;4.08;3.57;;;;;;;-10.52;56.77;101648.07;456211;113;930521;-73
2022/01/13 02:09:10;;;;;;;4.37;3.57;;;;;;;-10.53;56.81;101648.16;455874;114;922950;-71
2022/01/13 02:10:15;;;;;;;5.43;3.69;;;;;;;-10.49;56.95;101647.12;456111;113;930752;-73
2022/01/13 02:11:18;;;;;;;4.46;3.92;;;;;;;-10.47;56.98;101645.30;455948;114;923254;-73
2022/01/13 02:12:44;;;;;;;4.61;3.88;;;;;;;-10.44;56.85;101642.53;457025;113;922699;-73
2022/01/13 02:13:49;;;;;;;4.12;3.72;;;;;;;-10.43;56.77;101649.53;455737;113;925649;-73
2022/01/13 02:15:16;;;;;;;3.88;3.45;;;;;;;-10.46;56.73;101650.48;456368;114;922674;-72
2022/01/13 02:16:06;;;;;;;4.51;4.11;;;;;;;-10.48;56.75;101657.61;456714;114;922591;-72
2022/01/13 02:17:14;;;;;;;4.42;3.91;;;;;;;-10.49;56.89;101649.75;456975;113;922634;-72
2022/01/13 02:18:16;;;;;;;4.56;4.14;;;;;;;-10.49;56.91;101661.16;457019;113;922588;-73
2022/01/13 02:19:20;;;;;;;4.19;3.42;;;;;;;-10.48;56.89;101659.38;455564;114;922580;-72
2022/01/13 02:20:24;;;;;;;3.97;3.56;;;;;;;-10.47;56.97;101650.56;458377;114;925130;-72
2022/01/13 02:21:27;;;;;;;4.13;3.53;;;;;;;-10.47;56.89;101659.30;458041;115;922754;-72
2022/01/13 02:22:31;;;;;;;4.02;3.62;;;;;;;-10.45;56.98;101659.26;456792;113;922612;-73
2022/01/13 02:23:39;;;;;;;4.46;3.69;;;;;;;-10.46;57.09;101665.44;456248;113;922978;-72
2022/01/13 02:24:42;;;;;;;4.18;3.67;;;;;;;-10.45;56.96;101660.13;456196;113;923091;-72
2022/01/13 02:25:46;;;;;;;4.47;3.77;;;;;;;-10.47;56.94;101664.58;455584;114;922605;-73
2022/01/13 02:26:49;;;;;;;5.65;3.79;;;;;;;-10.48;56.94;101669.92;456229;113;924582;-72
2022/01/13 02:27:53;;;;;;;4.60;3.77;;;;;;;-10.48;56.99;101669.92;456347;114;930699;-72
2022/01/13 02:28:56;;;;;;;3.94;3.39;;;;;;;-10.48;57.04;101659.38;455654;115;922685;-71
2022/01/13 02:29:59;;;;;;;3.67;2.96;;;;;;;-10.49;57.05;101660.30;454767;114;930593;-73
2022/01/13 02:31:03;;;;;;;3.69;3.37;;;;;;;-10.50;57.06;101675.24;457150;114;922722;-72
2022/01/13 02:32:07;;;;;;;4.96;3.91;;;;;;;-10.49;57.09;101671.70;456019;113;923218;-71
2022/01/13 02:33:11;;;;;;;6.84;3.65;;;;;;;-10.50;57.07;101672.61;456220;113;922663;-73
2022/01/13 02:34:14;;;;;;;4.86;3.22;;;;;;;-10.51;57.10;101684.06;456592;114;922643;-73
2022/01/13 02:35:18;;;;;;;3.94;3.37;;;;;;;-10.54;57.04;101671.01;456470;113;930578;-72
2022/01/13 02:36:24;;;;;;;4.62;3.82;;;;;;;-10.56;57.08;101673.69;455840;114;930469;-74
2022/01/13 02:37:27;;;;;;;3.81;3.37;;;;;;;-10.57;57.21;101679.86;456770;114;923105;-74
2022/01/13 02:38:31;;;;;;;3.95;3.37;;;;;;;-10.56;57.30;101678.95;456442;114;930688;-71
2022/01/13 02:39:34;;;;;;;4.75;4.02;;;;;;;-10.54;57.41;101672.78;456968;114;922597;-73
2022/01/13 02:40:38;;;;;;;6.33;3.87;;;;;;;-10.52;57.47;101674.42;456282;113;922939;-73
2022/01/13 02:41:44;;;;;;;4.08;3.32;;;;;;;-10.52;57.39;101674.42;457859;114;930820;-71
2022/01/13 02:42:48;;;;;;;4.08;3.51;;;;;;;-10.52;57.49;101673.56;457951;113;923016;-73
2022/01/13 02:43:53;;;;;;;4.66;3.79;;;;;;;-10.53;57.46;101667.46;457210;113;922894;-72
2022/01/13 02:45:03;;;;;;;4.29;3.84;;;;;;;-10.54;57.45;101667.51;457088;114;922561;-73
2022/01/13 02:48:48;;;;;;;4.49;3.43;;;;;;;-10.56;57.88;101678.09;455336;113;922721;-72
2022/01/13 02:49:51;;;;;;;4.12;3.34;;;;;;;-10.59;57.86;101671.17;454738;114;922596;-72
2022/01/13 02:50:54;;;;;;;3.93;3.41;;;;;;;-10.61;57.85;101672.99;455288;113;930650;-71
2022/01/13 02:51:58;;;;;;;4.61;3.95;;;;;;;-10.63;57.91;101672.17;455483;114;923929;-71
2022/01/13 02:53:03;;;;;;;4.96;4.13;;;;;;;-10.64;58.02;101680.98;456748;113;930752;-71
2022/01/13 02:54:07;;;;;;;5.38;4.38;;;;;;;-10.65;58.00;101674.02;456421;114;930503;-71
2022/01/13 02:55:11;;;;;;;5.17;3.74;;;;;;;-10.66;58.12;101674.93;455891;115;923105;-73
2022/01/13 02:56:15;;;;;;;4.31;3.80;;;;;;;-10.66;58.30;101681.97;457484;113;922457;-72
2022/01/13 02:57:18;;;;;;;3.95;3.48;;;;;;;-10.65;58.45;101673.16;457999;113;922530;-72
2022/01/13 02:58:23;;;;;;;4.75;3.89;;;;;;;-10.65;58.53;101679.30;457460;114;922758;-73
2022/01/13 02:59:26;;;;;;;6.24;3.34;;;;;;;-10.64;58.74;101673.08;457570;113;922641;-72
2022/01/13 03:00:31;;;;;;;7.17;4.67;;;;;;;-10.61;59.00;101669.50;457701;114;922609;-72
2022/01/13 03:01:35;;;;;;;4.61;3.67;;;;;;;-10.59;59.06;101671.17;457975;113;923179;-74
2022/01/13 03:02:39;;;;;;;5.26;4.07;;;;;;;-10.57;59.05;101665.83;457828;114;922669;-73
2022/01/13 03:03:44;;;;;;;4.40;3.41;;;;;;;-10.58;59.07;101667.59;458207;114;922606;-71
2022/01/13 03:04:48;;;;;;;4.40;3.81;;;;;;;-10.54;59.31;101670.14;447721;116;922673;-71
2022/01/13 03:05:51;;;;;;;5.05;3.28;;;;;;;-10.51;59.52;101667.38;441421;118;931120;-72
2022/01/13 03:06:55;;;;;;;3.63;3.07;;;;;;;-10.49;59.53;101657.66;449244;115;924011;-71
2022/01/13 03:07:58;;;;;;;3.02;2.61;;;;;;;-10.47;59.46;101661.11;449423;117;930500;-72
2022/01/13 03:09:04;;;;;;;7.41;3.43;;;;;;;-10.48;59.35;101660.25;439857;118;930643;-72
2022/01/13 03:10:09;;;;;;;4.37;3.44;;;;;;;-10.49;59.27;101657.66;442494;118;930684;-72
2022/01/13 03:11:14;;;;;;;3.47;3.08;;;;;;;-10.49;59.20;101662.93;440180;118;923136;-69
2022/01/13 03:12:17;;;;;;;3.52;3.06;;;;;;;-10.50;59.29;101658.57;445751;116;922623;-72
2022/01/13 03:13:23;;;;;;;5.71;3.46;;;;;;;-10.51;59.39;101664.75;446845;116;922773;-72
2022/01/13 03:14:26;;;;;;;4.06;3.50;;;;;;;-10.51;59.36;101662.98;448171;116;930638;-73
2022/01/13 03:15:29;;;;;;;3.61;3.22;;;;;;;-10.51;59.63;101668.25;447698;116;922591;-73
2022/01/13 03:16:32;;;;;;;3.94;3.17;;;;;;;-10.51;59.69;101665.61;447406;116;922460;-71
2022/01/13 03:17:36;;;;;;;3.86;3.22;;;;;;;-10.50;59.66;101669.97;447375;116;930702;-70
2022/01/13 03:18:39;;;;;;;4.59;3.66;;;;;;;-10.50;59.81;101669.97;446485;115;922547;-71
2022/01/13 03:19:42;;;;;;;4.22;3.41;;;;;;;-10.49;59.91;101669.06;448125;116;922651;-73
2022/01/13 03:20:46;;;;;;;5.05;3.59;;;;;;;-10.45;60.14;101667.16;440607;119;930667;-72
2022/01/13 03:21:50;;;;;;;3.95;3.14;;;;;;;-10.42;60.15;101672.34;442398;116;922642;-72
2022/01/13 03:22:53;;;;;;;4.58;3.62;;;;;;;-10.40;60.10;101668.72;442595;116;922710;-71
2022/01/13 03:23:56;;;;;;;4.72;3.38;;;;;;;-10.40;60.12;101666.08;442091;116;930577;-70
2022/01/13 03:24:59;;;;;;;4.35;2.81;;;;;;;-10.40;60.03;101673.99;441838;118;922543;-74
2022/01/13 03:26:04;;;;;;;4.29;3.35;;;;;;;-10.42;60.05;101670.57;442467;117;922539;-70
2022/01/13 03:27:12;;;;;;;3.90;2.54;;;;;;;-10.44;60.12;101667.13;433969;118;930722;-72
2022/01/13 03:28:28;;;;;;;4.06;3.47;;;;;;;-10.45;60.61;101667.16;434856;118;923091;-72
2022/01/13 03:29:24;;;;;;;4.14;3.57;;;;;;;-10.49;61.21;101669.06;441969;119;922574;-70
2022/01/13 03:30:28;;;;;;;4.32;3.59;;;;;;;-10.53;61.92;101674.50;442804;117;922705;-71
2022/01/13 03:31:32;;;;;;;5.51;3.52;;;;;;;-10.54;62.50;101672.78;443076;116;922586;-71
2022/01/13 03:32:37;;;;;;;3.85;3.02;;;;;;;-10.53;62.88;101670.09;442049;118;922605;-72
2022/01/13 03:33:40;;;;;;;4.88;4.12;;;;;;;-10.51;63.30;101665.61;442769;119;923139;-71
2022/01/13 03:34:43;;;;;;;9.63;3.72;;;;;;;-10.48;63.39;101667.29;444244;119;922663;-72
2022/01/13 03:35:47;;;;;;;4.58;3.16;;;;;;;-10.47;63.43;101661.94;444128;116;922597;-72
2022/01/13 03:36:50;;;;;;;4.19;3.52;;;;;;;-10.43;63.75;101667.98;441514;116;923123;-71
2022/01/13 03:37:54;;;;;;;4.04;3.36;;;;;;;-10.41;63.80;101666.13;440569;118;930597;-70
2022/01/13 03:38:57;;;;;;;4.18;3.67;;;;;;;-10.41;63.65;101667.00;441322;117;930521;-71
2022/01/13 03:40:01;;;;;;;3.86;3.31;;;;;;;-10.41;62.82;101667.00;442203;116;930567;-71
2022/01/13 03:41:04;;;;;;;3.96;3.54;;;;;;;-10.40;63.25;101663.45;442128;118;930662;-71
2022/01/13 03:42:08;;;;;;;4.44;3.51;;;;;;;-10.40;63.19;101667.86;439985;119;930597;-71
2022/01/13 03:43:14;;;;;;;4.63;3.34;;;;;;;-10.40;63.50;101665.22;441393;118;930563;-71
2022/01/13 03:44:27;;;;;;;4.59;3.50;;;;;;;-10.41;63.48;101663.50;441936;116;922453;-72
2022/01/13 03:45:22;;;;;;;4.73;3.37;;;;;;;-10.41;63.24;101660.86;442600;116;923216;-72
2022/01/13 03:46:26;;;;;;;5.12;3.06;;;;;;;-10.41;63.54;101663.50;441111;119;922743;-71
2022/01/13 03:47:30;;;;;;;3.67;3.09;;;;;;;-10.40;63.47;101662.59;442391;118;922966;-72
2022/01/13 03:48:33;;;;;;;3.81;2.56;;;;;;;-10.42;63.38;101657.39;442254;116;930566;-70
2022/01/13 03:49:37;;;;;;;5.70;2.75;;;;;;;-10.40;63.34;101667.86;442700;116;930522;-73
2022/01/13 03:50:41;;;;;;;4.39;3.45;;;;;;;-10.40;63.34;101666.08;442355;119;923278;-71
2022/01/13 03:51:55;;;;;;;3.29;2.91;;;;;;;-10.40;63.00;101660.81;442591;118;922536;-71
2022/01/13 03:53:02;;;;;;;4.50;3.17;;;;;;;-10.37;63.04;101657.22;438318;118;922702;-73
2022/01/13 03:54:24;;;;;;;3.34;2.90;;;;;;;-10.34;63.08;101667.64;436205;118;922671;-72
2022/01/13 03:55:40;;;;;;;3.33;2.97;;;;;;;-10.33;62.89;101666.73;434376;119;922636;-73
2022/01/13 03:57:07;;;;;;;3.74;3.25;;;;;;;-10.31;62.62;101672.81;434627;119;923000;-72
2022/01/13 03:58:45;;;;;;;5.78;3.96;;;;;;;-10.33;62.38;101664.95;434434;119;922562;-69
2022/01/13 04:00:30;;;;;;;4.12;3.31;;;;;;;-10.34;60.91;101670.27;434953;121;922581;-71
2022/01/13 04:01:45;;;;;;;3.52;2.86;;;;;;;-10.36;61.44;101665.05;432869;120;923533;-70
2022/01/13 04:02:50;;;;;;;6.15;4.18;;;;;;;-10.39;60.54;101659.04;436033;119;922751;-72
2022/01/13 04:03:54;;;;;;;5.61;3.30;;;;;;;-10.44;60.77;101655.72;439246;119;922576;-73
2022/01/13 04:04:58;;;;;;;5.00;3.12;;;;;;;-10.46;61.30;101658.39;442822;117;922518;-73
2022/01/13 04:06:11;;;;;;;3.82;3.42;;;;;;;-10.46;61.38;101658.39;440628;118;923257;-71
2022/01/13 04:07:18;;;;;;;3.99;3.49;;;;;;;-10.48;61.01;101648.84;438775;117;922730;-72
2022/01/13 04:08:28;;;;;;;4.46;3.11;;;;;;;-10.38;61.42;101652.86;469345;110;946948;-71
2022/01/13 04:09:38;;;;;;;7.12;2.85;;;;;;;-10.49;61.61;101652.39;453064;114;922578;-71
2022/01/13 04:10:50;;;;;;;5.05;3.64;;;;;;;-10.48;61.86;101657.61;451404;113;922233;-71
2022/01/13 04:11:53;;;;;;;4.21;3.57;;;;;;;-10.45;61.81;101656.63;453469;114;922361;-72
2022/01/13 04:12:57;;;;;;;4.55;4.00;;;;;;;-10.45;61.51;101660.13;452964;114;923791;-73
2022/01/13 04:14:02;;;;;;;4.13;3.39;;;;;;;-10.43;61.34;101660.08;453264;113;922620;-72
2022/01/13 04:15:11;;;;;;;4.84;3.33;;;;;;;-10.45;61.29;101665.39;452590;114;922556;-73
2022/01/13 04:16:17;;;;;;;3.92;3.19;;;;;;;-10.45;61.35;101662.76;452373;115;922948;-73
2022/01/13 04:17:22;;;;;;;6.18;3.76;;;;;;;-10.43;61.44;101666.21;451645;114;922702;-73
2022/01/13 04:18:26;;;;;;;4.45;3.13;;;;;;;-10.42;61.03;101669.70;451742;114;922628;-72
2022/01/13 04:19:29;;;;;;;4.71;3.71;;;;;;;-10.43;60.99;101663.58;452518;114;922790;-72
2022/01/13 04:20:32;;;;;;;4.09;3.69;;;;;;;-10.41;60.74;101668.77;451052;115;930665;-73
2022/01/13 04:21:38;;;;;;;3.71;3.36;;;;;;;-10.41;60.44;101664.36;451985;115;922849;-73
2022/01/13 04:22:42;;;;;;;3.48;3.17;;;;;;;-10.44;59.81;101674.16;450629;114;923019;-72
2022/01/13 04:23:45;;;;;;;4.04;3.39;;;;;;;-10.47;59.66;101671.66;451445;114;923481;-72
2022/01/13 04:24:51;;;;;;;6.79;3.86;;;;;;;-10.49;59.86;101673.47;452172;114;930502;-71
2022/01/13 04:25:54;;;;;;;3.93;3.58;;;;;;;-10.49;59.75;101673.47;453554;114;922670;-71
2022/01/13 04:26:58;;;;;;;5.48;4.61;;;;;;;-10.49;59.75;101676.11;452439;113;922651;-71
2022/01/13 04:28:03;;;;;;;4.74;3.55;;;;;;;-10.51;59.69;101676.16;453161;114;930790;-70
2022/01/13 04:31:21;;;;;;;3.91;3.39;;;;;;;-10.51;59.41;101670.88;452687;114;922611;-71
2022/01/13 04:32:25;;;;;;;3.70;3.14;;;;;;;-10.52;59.42;101670.92;453467;113;922715;-72
2022/01/13 04:33:33;;;;;;;4.52;3.05;;;;;;;-10.55;59.53;101671.91;453514;114;930815;-71
2022/01/13 04:34:36;;;;;;;3.87;3.38;;;;;;;-10.55;59.44;101677.19;452831;114;922603;-72
2022/01/13 04:35:43;;;;;;;3.77;3.29;;;;;;;-10.57;59.43;101671.96;452658;113;922998;-72
2022/01/13 04:36:48;;;;;;;4.94;3.49;;;;;;;-10.55;59.46;101677.19;453908;114;923172;-71
2022/01/13 04:37:51;;;;;;;4.73;3.69;;;;;;;-10.54;59.59;101675.41;452052;114;922505;-73
2022/01/13 04:38:54;;;;;;;3.53;2.84;;;;;;;-10.52;59.62;101678.83;452354;114;923162;-73
2022/01/13 04:39:58;;;;;;;4.29;3.07;;;;;;;-10.50;59.76;101683.15;452402;113;930642;-71
2022/01/13 04:41:02;;;;;;;5.12;3.54;;;;;;;-10.48;59.42;101677.83;452255;114;922606;-72
2022/01/13 04:42:07;;;;;;;3.96;3.12;;;;;;;-10.48;58.64;101667.29;452937;114;922587;-72
2022/01/13 04:43:12;;;;;;;4.16;3.22;;;;;;;-10.51;58.56;101667.38;451438;114;923511;-71
2022/01/13 04:44:17;;;;;;;4.98;3.67;;;;;;;-10.57;58.56;101669.33;451494;113;922638;-72
2022/01/13 04:45:22;;;;;;;4.94;3.10;;;;;;;-10.60;58.78;101674.72;451482;114;928990;-72
2022/01/13 04:46:26;;;;;;;4.01;3.26;;;;;;;-10.60;58.89;101673.86;451393;114;922753;-72
2022/01/13 04:47:30;;;;;;;4.12;3.10;;;;;;;-10.61;59.02;101675.62;450687;114;922592;-71
2022/01/13 04:48:33;;;;;;;3.38;3.02;;;;;;;-10.60;59.25;101676.48;451107;113;930875;-71
2022/01/13 04:49:36;;;;;;;3.87;3.26;;;;;;;-10.60;59.35;101676.48;451518;114;930827;-71
2022/01/13 04:50:40;;;;;;;4.14;3.12;;;;;;;-10.59;59.50;101675.58;452277;114;930604;-72
2022/01/13 04:51:44;;;;;;;5.30;3.26;;;;;;;-10.60;59.96;101677.35;453807;114;922575;-71
2022/01/13 04:52:47;;;;;;;3.96;3.17;;;;;;;-10.61;60.57;101670.36;452592;114;923717;-72
2022/01/13 04:53:50;;;;;;;3.98;3.24;;;;;;;-10.60;60.93;101674.72;452897;114;930640;-72
2022/01/13 04:54:54;;;;;;;5.92;3.47;;;;;;;-10.60;60.92;101682.62;453083;114;922649;-72
2022/01/13 04:55:58;;;;;;;4.64;3.39;;;;;;;-10.60;60.95;101682.62;448510;116;923339;-72
2022/01/13 04:57:14;;;;;;;4.30;3.63;;;;;;;-10.62;60.82;101681.80;448531;116;930636;-72
2022/01/13 04:58:10;;;;;;;5.62;3.77;;;;;;;-10.64;61.52;101686.26;452640;114;922623;-73
2022/01/13 04:59:13;;;;;;;3.40;2.90;;;;;;;-10.68;62.11;101687.28;452123;114;922640;-72
2022/01/13 05:00:17;;;;;;;3.14;2.76;;;;;;;-10.70;62.52;101696.17;452825;114;923280;-73
2022/01/13 05:01:21;;;;;;;3.99;3.17;;;;;;;-10.75;62.16;101688.41;444181;116;922697;-72
2022/01/13 05:02:25;;;;;;;3.28;2.78;;;;;;;-10.78;62.12;101693.80;445247;117;931086;-72
2022/01/13 05:03:28;;;;;;;3.66;2.79;;;;;;;-10.79;62.04;101692.06;452871;114;922870;-72
2022/01/13 05:04:31;;;;;;;4.18;2.95;;;;;;;-10.81;61.67;101693.05;451737;114;930581;-72
2022/01/13 05:05:35;;;;;;;3.77;3.09;;;;;;;-10.82;61.61;101696.59;451958;114;922853;-71
2022/01/13 05:06:38;;;;;;;3.44;3.08;;;;;;;-10.83;61.34;101695.72;452714;114;922662;-72
2022/01/13 05:07:42;;;;;;;4.22;2.78;;;;;;;-10.84;61.14;101693.14;452323;116;930593;-73
2022/01/13 05:08:46;;;;;;;5.91;3.52;;;;;;;-10.86;60.70;101684.45;448744;115;930680;-71
2022/01/13 05:09:50;;;;;;;5.63;3.41;;;;;;;-10.89;60.44;101689.80;447493;117;922611;-73
2022/01/13 05:10:53;;;;;;;3.75;3.05;;;;;;;-10.90;60.36;101695.97;448716;115;923292;-69